sensor_id;sensor_type;location;lat;lon;timestamp;pressure;altitude;pressure_sealevel;temperature;humidity
60852;BME280;48553;50.766;2.900;2022-09-03T00:00:57;100227.78;;;22.48;55.53
60852;BME280;48553;50.766;2.900;2022-09-03T00:04:18;100222.63;;;22.46;55.24
60852;BME280;48553;50.766;2.900;2022-09-03T00:07:29;100217.84;;;22.47;55.64
60852;BME280;48553;50.766;2.900;2022-09-03T00:14:13;100207.53;;;22.44;55.14
60852;BME280;48553;50.766;2.900;2022-09-03T00:17:17;100227.19;;;22.37;56.08
60852;BME280;48553;50.766;2.900;2022-09-03T00:20:31;100225.22;;;22.37;56.06
60852;BME280;48553;50.766;2.900;2022-09-03T00:23:34;100225.69;;;22.32;56.27
60852;BME280;48553;50.766;2.900;2022-09-03T00:26:37;100223.84;;;22.25;56.45
60852;BME280;48553;50.766;2.900;2022-09-03T00:29:51;100238.25;;;22.24;56.56
60852;BME280;48553;50.766;2.900;2022-09-03T00:33:01;100240.16;;;22.27;56.53
60852;BME280;48553;50.766;2.900;2022-09-03T00:39:14;100240.66;;;22.22;57.43
60852;BME280;48553;50.766;2.900;2022-09-03T00:42:30;100237.09;;;22.21;57.29
60852;BME280;48553;50.766;2.900;2022-09-03T00:45:50;100232.31;;;22.18;57.44
60852;BME280;48553;50.766;2.900;2022-09-03T00:55:21;100228.88;;;22.10;57.25
60852;BME280;48553;50.766;2.900;2022-09-03T00:59:16;100235.34;;;22.07;57.15
60852;BME280;48553;50.766;2.900;2022-09-03T01:02:56;100231.03;;;22.03;57.92
60852;BME280;48553;50.766;2.900;2022-09-03T01:12:35;100235.03;;;22.02;57.10
60852;BME280;48553;50.766;2.900;2022-09-03T01:35:50;100229.34;;;21.85;57.87
60852;BME280;48553;50.766;2.900;2022-09-03T01:39:04;100222.25;;;21.81;57.92
60852;BME280;48553;50.766;2.900;2022-09-03T01:42:27;100228.25;;;21.79;57.56
60852;BME280;48553;50.766;2.900;2022-09-03T01:45:40;100221.16;;;21.75;58.25
60852;BME280;48553;50.766;2.900;2022-09-03T01:52:44;100221.53;;;21.77;56.95
60852;BME280;48553;50.766;2.900;2022-09-03T02:02:22;100217.66;;;21.71;57.52
60852;BME280;48553;50.766;2.900;2022-09-03T02:05:26;100220.94;;;21.65;57.71
60852;BME280;48553;50.766;2.900;2022-09-03T02:08:27;100220.16;;;21.65;57.32
60852;BME280;48553;50.766;2.900;2022-09-03T02:11:27;100221.72;;;21.66;57.32
60852;BME280;48553;50.766;2.900;2022-09-03T02:14:28;100224.13;;;21.64;57.35
60852;BME280;48553;50.766;2.900;2022-09-03T02:17:32;100219.00;;;21.62;57.67
60852;BME280;48553;50.766;2.900;2022-09-03T02:20:33;100209.81;;;21.62;57.26
60852;BME280;48553;50.766;2.900;2022-09-03T02:23:34;100211.09;;;21.57;57.67
60852;BME280;48553;50.766;2.900;2022-09-03T02:26:35;100209.91;;;21.58;57.36
60852;BME280;48553;50.766;2.900;2022-09-03T02:29:35;100209.94;;;21.55;57.77
60852;BME280;48553;50.766;2.900;2022-09-03T02:32:36;100205.88;;;21.59;57.21
60852;BME280;48553;50.766;2.900;2022-09-03T02:35:36;100204.75;;;21.57;57.21
60852;BME280;48553;50.766;2.900;2022-09-03T02:38:41;100215.53;;;21.55;57.09
60852;BME280;48553;50.766;2.900;2022-09-03T02:41:42;100208.81;;;21.52;57.51
60852;BME280;48553;50.766;2.900;2022-09-03T02:44:47;100205.28;;;21.48;57.48
60852;BME280;48553;50.766;2.900;2022-09-03T02:47:54;100205.72;;;21.46;57.28
60852;BME280;48553;50.766;2.900;2022-09-03T02:50:55;100206.13;;;21.45;57.48
60852;BME280;48553;50.766;2.900;2022-09-03T02:53:55;100202.94;;;21.46;57.28
60852;BME280;48553;50.766;2.900;2022-09-03T02:56:56;100196.22;;;21.44;57.39
60852;BME280;48553;50.766;2.900;2022-09-03T02:59:56;100200.63;;;21.41;57.41
60852;BME280;48553;50.766;2.900;2022-09-03T03:02:57;100201.41;;;21.42;57.48
60852;BME280;48553;50.766;2.900;2022-09-03T03:06:00;100199.44;;;21.39;57.36
60852;BME280;48553;50.766;2.900;2022-09-03T03:09:02;100208.25;;;21.37;57.43
60852;BME280;48553;50.766;2.900;2022-09-03T03:12:05;100202.66;;;21.37;57.03
60852;BME280;48553;50.766;2.900;2022-09-03T03:15:06;100203.84;;;21.36;57.31
60852;BME280;48553;50.766;2.900;2022-09-03T03:18:07;100199.56;;;21.32;57.44
60852;BME280;48553;50.766;2.900;2022-09-03T03:21:16;100208.00;;;21.28;57.55
60852;BME280;48553;50.766;2.900;2022-09-03T03:24:16;100204.41;;;21.27;57.44
60852;BME280;48553;50.766;2.900;2022-09-03T03:27:17;100202.03;;;21.26;57.45
60852;BME280;48553;50.766;2.900;2022-09-03T03:30:18;100201.69;;;21.24;57.55
60852;BME280;48553;50.766;2.900;2022-09-03T03:33:20;100206.03;;;21.25;57.56
60852;BME280;48553;50.766;2.900;2022-09-03T03:36:21;100199.38;;;21.19;57.66
60852;BME280;48553;50.766;2.900;2022-09-03T03:39:22;100194.59;;;21.19;57.41
60852;BME280;48553;50.766;2.900;2022-09-03T03:42:22;100189.06;;;21.16;57.94
60852;BME280;48553;50.766;2.900;2022-09-03T03:45:23;100193.44;;;21.17;57.49
60852;BME280;48553;50.766;2.900;2022-09-03T03:48:24;100199.47;;;21.12;57.93
60852;BME280;48553;50.766;2.900;2022-09-03T03:51:25;100197.50;;;21.12;57.82
60852;BME280;48553;50.766;2.900;2022-09-03T03:54:25;100206.66;;;21.09;57.84
60852;BME280;48553;50.766;2.900;2022-09-03T03:57:29;100199.09;;;21.10;57.52
60852;BME280;48553;50.766;2.900;2022-09-03T04:00:30;100195.53;;;21.09;57.75
60852;BME280;48553;50.766;2.900;2022-09-03T04:03:30;100198.00;;;21.03;57.82
60852;BME280;48553;50.766;2.900;2022-09-03T04:06:31;100198.00;;;21.03;57.81
60852;BME280;48553;50.766;2.900;2022-09-03T04:09:31;100196.41;;;21.02;57.69
60852;BME280;48553;50.766;2.900;2022-09-03T04:12:32;100198.84;;;21.00;57.79
60852;BME280;48553;50.766;2.900;2022-09-03T04:15:32;100198.50;;;20.98;57.83
60852;BME280;48553;50.766;2.900;2022-09-03T04:18:33;100186.16;;;20.96;57.65
60852;BME280;48553;50.766;2.900;2022-09-03T04:21:34;100192.59;;;20.93;57.86
60852;BME280;48553;50.766;2.900;2022-09-03T04:24:35;100195.38;;;20.93;57.78
60852;BME280;48553;50.766;2.900;2022-09-03T04:27:36;100195.00;;;20.91;57.64
60852;BME280;48553;50.766;2.900;2022-09-03T04:30:37;100195.84;;;20.88;58.18
60852;BME280;48553;50.766;2.900;2022-09-03T04:36:38;100202.31;;;20.81;58.16
60852;BME280;48553;50.766;2.900;2022-09-03T04:39:39;100202.31;;;20.81;58.24
60852;BME280;48553;50.766;2.900;2022-09-03T04:42:39;100211.09;;;20.79;58.62
60852;BME280;48553;50.766;2.900;2022-09-03T04:45:40;100208.72;;;20.78;58.36
60852;BME280;48553;50.766;2.900;2022-09-03T04:48:40;100201.94;;;20.79;58.63
60852;BME280;48553;50.766;2.900;2022-09-03T04:51:41;100206.75;;;20.78;58.54
60852;BME280;48553;50.766;2.900;2022-09-03T04:54:41;100200.78;;;20.76;58.52
60852;BME280;48553;50.766;2.900;2022-09-03T04:57:41;100198.00;;;20.76;58.82
60852;BME280;48553;50.766;2.900;2022-09-03T05:00:43;100209.97;;;20.73;58.89
60852;BME280;48553;50.766;2.900;2022-09-03T05:03:44;100206.84;;;20.71;58.73
60852;BME280;48553;50.766;2.900;2022-09-03T05:06:44;100217.97;;;20.71;58.76
60852;BME280;48553;50.766;2.900;2022-09-03T05:09:46;100216.38;;;20.70;58.80
60852;BME280;48553;50.766;2.900;2022-09-03T05:12:47;100209.19;;;20.73;58.64
60852;BME280;48553;50.766;2.900;2022-09-03T05:15:49;100216.38;;;20.70;59.30
60852;BME280;48553;50.766;2.900;2022-09-03T05:18:54;100217.22;;;20.67;59.21
60852;BME280;48553;50.766;2.900;2022-09-03T05:21:55;100217.59;;;20.69;59.17
60852;BME280;48553;50.766;2.900;2022-09-03T05:24:56;100216.84;;;20.65;59.36
60852;BME280;48553;50.766;2.900;2022-09-03T05:27:57;100216.84;;;20.65;58.94
60852;BME280;48553;50.766;2.900;2022-09-03T05:31:11;100227.22;;;20.64;58.93
60852;BME280;48553;50.766;2.900;2022-09-03T05:34:12;100216.84;;;20.65;59.18
60852;BME280;48553;50.766;2.900;2022-09-03T05:37:12;100216.09;;;20.61;59.48
60852;BME280;48553;50.766;2.900;2022-09-03T05:40:13;100220.91;;;20.60;59.31
60852;BME280;48553;50.766;2.900;2022-09-03T05:43:13;100219.28;;;20.63;59.41
60852;BME280;48553;50.766;2.900;2022-09-03T05:46:16;100224.84;;;20.63;59.65
60852;BME280;48553;50.766;2.900;2022-09-03T05:49:17;100223.69;;;20.60;59.64
60852;BME280;48553;50.766;2.900;2022-09-03T05:52:17;100228.47;;;20.60;59.59
60852;BME280;48553;50.766;2.900;2022-09-03T05:55:20;100234.03;;;20.60;59.74
60852;BME280;48553;50.766;2.900;2022-09-03T05:58:21;100223.69;;;20.60;59.30
60852;BME280;48553;50.766;2.900;2022-09-03T06:01:25;100225.69;;;20.60;59.47
60852;BME280;48553;50.766;2.900;2022-09-03T06:04:27;100226.88;;;20.59;59.47
60852;BME280;48553;50.766;2.900;2022-09-03T06:07:28;100229.66;;;20.59;59.54
60852;BME280;48553;50.766;2.900;2022-09-03T06:10:28;100223.31;;;20.58;59.54
60852;BME280;48553;50.766;2.900;2022-09-03T06:13:30;100230.09;;;20.54;59.98
60852;BME280;48553;50.766;2.900;2022-09-03T06:16:33;100231.66;;;20.58;59.94
60852;BME280;48553;50.766;2.900;2022-09-03T06:19:33;100240.41;;;20.57;59.89
60852;BME280;48553;50.766;2.900;2022-09-03T06:22:34;100243.22;;;20.57;60.08
60852;BME280;48553;50.766;2.900;2022-09-03T06:25:34;100240.41;;;20.57;60.04
60852;BME280;48553;50.766;2.900;2022-09-03T06:28:36;100236.44;;;20.58;60.20
60852;BME280;48553;50.766;2.900;2022-09-03T06:31:37;100235.25;;;20.55;60.58
60852;BME280;48553;50.766;2.900;2022-09-03T06:34:38;100241.19;;;20.57;60.69
60852;BME280;48553;50.766;2.900;2022-09-03T06:37:39;100233.25;;;20.56;60.97
60852;BME280;48553;50.766;2.900;2022-09-03T06:40:40;100245.19;;;20.60;60.94
60852;BME280;48553;50.766;2.900;2022-09-03T06:43:41;100241.56;;;20.59;60.77
60852;BME280;48553;50.766;2.900;2022-09-03T06:46:42;100247.16;;;20.59;60.66
60852;BME280;48553;50.766;2.900;2022-09-03T06:49:42;100240.00;;;20.58;61.06
60852;BME280;48553;50.766;2.900;2022-09-03T06:52:43;100244.75;;;20.61;60.63
60852;BME280;48553;50.766;2.900;2022-09-03T06:55:55;100243.97;;;20.61;60.84
60852;BME280;48553;50.766;2.900;2022-09-03T06:58:57;100241.94;;;20.61;60.73
60852;BME280;48553;50.766;2.900;2022-09-03T07:01:58;100247.59;;;20.58;61.07
60852;BME280;48553;50.766;2.900;2022-09-03T07:04:59;100247.13;;;20.63;60.70
60852;BME280;48553;50.766;2.900;2022-09-03T07:08:00;100250.31;;;20.61;61.08
60852;BME280;48553;50.766;2.900;2022-09-03T07:11:02;100251.44;;;20.68;60.79
60852;BME280;48553;50.766;2.900;2022-09-03T07:14:08;100245.88;;;20.68;60.83
60852;BME280;48553;50.766;2.900;2022-09-03T07:17:08;100246.66;;;20.68;60.70
60852;BME280;48553;50.766;2.900;2022-09-03T07:20:09;100239.03;;;20.72;60.71
60852;BME280;48553;50.766;2.900;2022-09-03T07:23:09;100251.75;;;20.73;61.21
60852;BME280;48553;50.766;2.900;2022-09-03T07:26:14;100258.06;;;20.77;60.59
60852;BME280;48553;50.766;2.900;2022-09-03T07:29:15;100264.00;;;20.79;61.11
60852;BME280;48553;50.766;2.900;2022-09-03T07:32:19;100264.00;;;20.79;61.23
60852;BME280;48553;50.766;2.900;2022-09-03T07:35:19;100252.84;;;20.83;61.95
60852;BME280;48553;50.766;2.900;2022-09-03T07:38:20;100248.41;;;20.85;61.51
60852;BME280;48553;50.766;2.900;2022-09-03T07:41:23;100262.72;;;20.88;61.80
60852;BME280;48553;50.766;2.900;2022-09-03T07:44:24;100261.03;;;20.94;61.87
60852;BME280;48553;50.766;2.900;2022-09-03T07:47:24;100260.97;;;20.97;61.85
60852;BME280;48553;50.766;2.900;2022-09-03T07:50:25;100269.72;;;20.99;62.61
60852;BME280;48553;50.766;2.900;2022-09-03T07:53:29;100266.53;;;21.01;62.38
60852;BME280;48553;50.766;2.900;2022-09-03T07:56:30;100272.03;;;21.04;62.17
60852;BME280;48553;50.766;2.900;2022-09-03T07:59:30;100277.56;;;21.08;62.45
60852;BME280;48553;50.766;2.900;2022-09-03T08:02:30;100265.97;;;21.10;62.30
60852;BME280;48553;50.766;2.900;2022-09-03T08:05:32;100273.88;;;21.15;62.26
60852;BME280;48553;50.766;2.900;2022-09-03T08:08:34;100271.47;;;21.17;62.75
60852;BME280;48553;50.766;2.900;2022-09-03T08:11:40;100275.44;;;21.16;63.15
60852;BME280;48553;50.766;2.900;2022-09-03T08:14:41;100273.41;;;21.20;62.96
60852;BME280;48553;50.766;2.900;2022-09-03T08:17:43;100281.34;;;21.21;63.27
60852;BME280;48553;50.766;2.900;2022-09-03T08:20:44;100290.91;;;21.20;63.29
60852;BME280;48553;50.766;2.900;2022-09-03T08:23:51;100280.91;;;21.23;63.60
60852;BME280;48553;50.766;2.900;2022-09-03T08:26:52;100289.66;;;21.25;63.16
60852;BME280;48553;50.766;2.900;2022-09-03T08:29:53;100294.81;;;21.26;63.34
60852;BME280;48553;50.766;2.900;2022-09-03T08:32:54;100293.19;;;21.29;63.14
60852;BME280;48553;50.766;2.900;2022-09-03T08:35:54;100301.91;;;21.31;64.04
60852;BME280;48553;50.766;2.900;2022-09-03T08:38:56;100293.84;;;21.37;62.87
60852;BME280;48553;50.766;2.900;2022-09-03T08:45:34;100306.16;;;21.43;63.54
60852;BME280;48553;50.766;2.900;2022-09-03T08:48:35;100305.28;;;21.46;63.00
60852;BME280;48553;50.766;2.900;2022-09-03T08:51:36;100303.69;;;21.48;62.93
60852;BME280;48553;50.766;2.900;2022-09-03T08:54:38;100310.41;;;21.51;63.93
60852;BME280;48553;50.766;2.900;2022-09-03T08:57:46;100321.13;;;21.53;64.11
60852;BME280;48553;50.766;2.900;2022-09-03T09:00:51;100311.94;;;21.56;62.72
60852;BME280;48553;50.766;2.900;2022-09-03T09:04:36;100309.53;;;21.58;63.50
60852;BME280;48553;50.766;2.900;2022-09-03T09:14:27;100332.91;;;21.64;63.38
60852;BME280;48553;50.766;2.900;2022-09-03T09:21:12;100328.94;;;21.65;64.34
60852;BME280;48553;50.766;2.900;2022-09-03T09:24:23;100332.00;;;21.71;63.90
60852;BME280;48553;50.766;2.900;2022-09-03T09:27:25;100327.59;;;21.73;63.18
60852;BME280;48553;50.766;2.900;2022-09-03T09:30:30;100332.34;;;21.76;62.45
60852;BME280;48553;50.766;2.900;2022-09-03T09:33:31;100339.44;;;21.81;62.22
60852;BME280;48553;50.766;2.900;2022-09-03T09:36:47;100339.72;;;21.86;63.28
60852;BME280;48553;50.766;2.900;2022-09-03T09:39:57;100348.06;;;21.90;64.69
60852;BME280;48553;50.766;2.900;2022-09-03T09:49:30;100327.44;;;22.07;62.60
60852;BME280;48553;50.766;2.900;2022-09-03T09:52:31;100326.16;;;22.12;63.37
60852;BME280;48553;50.766;2.900;2022-09-03T09:55:33;100326.81;;;22.20;63.44
60852;BME280;48553;50.766;2.900;2022-09-03T09:58:34;100327.94;;;22.26;64.32
60852;BME280;48553;50.766;2.900;2022-09-03T10:01:40;100327.03;;;22.33;64.12
60852;BME280;48553;50.766;2.900;2022-09-03T10:04:41;100324.16;;;22.36;63.44
60852;BME280;48553;50.766;2.900;2022-09-03T10:08:00;100329.22;;;22.41;63.80
60852;BME280;48553;50.766;2.900;2022-09-03T10:11:01;100325.97;;;22.46;64.18
60852;BME280;48553;50.766;2.900;2022-09-03T10:14:03;100320.28;;;22.50;63.00
60852;BME280;48553;50.766;2.900;2022-09-03T10:17:15;100328.19;;;22.55;62.54
60852;BME280;48553;50.766;2.900;2022-09-03T10:20:23;100321.66;;;22.62;62.94
60852;BME280;48553;50.766;2.900;2022-09-03T10:23:50;100341.47;;;22.71;62.65
60852;BME280;48553;50.766;2.900;2022-09-03T10:26:56;100326.88;;;22.80;63.51
60852;BME280;48553;50.766;2.900;2022-09-03T10:29:57;100331.53;;;22.86;62.96
60852;BME280;48553;50.766;2.900;2022-09-03T10:33:15;100330.09;;;22.98;63.82
60852;BME280;48553;50.766;2.900;2022-09-03T10:36:35;100326.28;;;23.12;63.80
60852;BME280;48553;50.766;2.900;2022-09-03T10:42:57;100320.03;;;23.41;62.21
60852;BME280;48553;50.766;2.900;2022-09-03T10:46:06;100324.66;;;23.47;62.76
60852;BME280;48553;50.766;2.900;2022-09-03T10:49:45;100330.91;;;23.71;62.24
60852;BME280;48553;50.766;2.900;2022-09-03T10:56:23;100331.53;;;24.41;63.52
60852;BME280;48553;50.766;2.900;2022-09-03T11:09:18;100337.94;;;25.13;60.47
60852;BME280;48553;50.766;2.900;2022-09-03T11:12:27;100339.19;;;25.12;61.08
60852;BME280;48553;50.766;2.900;2022-09-03T11:15:41;100338.00;;;25.51;60.47
60852;BME280;48553;50.766;2.900;2022-09-03T11:18:48;100344.75;;;25.67;60.25
60852;BME280;48553;50.766;2.900;2022-09-03T11:21:50;100342.38;;;25.65;59.16
60852;BME280;48553;50.766;2.900;2022-09-03T11:24:56;100342.13;;;25.85;61.43
60852;BME280;48553;50.766;2.900;2022-09-03T11:28:15;100335.19;;;25.90;58.94
60852;BME280;48553;50.766;2.900;2022-09-03T11:31:29;100340.41;;;26.13;59.66
60852;BME280;48553;50.766;2.900;2022-09-03T11:34:44;100333.66;;;26.23;58.56
60852;BME280;48553;50.766;2.900;2022-09-03T11:37:59;100336.72;;;26.16;58.30
60852;BME280;48553;50.766;2.900;2022-09-03T11:41:13;100321.94;;;26.25;57.59
60852;BME280;48553;50.766;2.900;2022-09-03T11:44:18;100324.19;;;26.52;57.73
60852;BME280;48553;50.766;2.900;2022-09-03T11:53:25;100314.19;;;26.95;58.06
60852;BME280;48553;50.766;2.900;2022-09-03T11:56:29;100314.78;;;27.12;56.54
60852;BME280;48553;50.766;2.900;2022-09-03T11:59:30;100311.47;;;27.14;55.96
60852;BME280;48553;50.766;2.900;2022-09-03T12:02:31;100313.25;;;27.20;56.75
60852;BME280;48553;50.766;2.900;2022-09-03T12:06:20;100307.41;;;27.37;56.42
60852;BME280;48553;50.766;2.900;2022-09-03T12:10:06;100315.63;;;27.62;54.47
60852;BME280;48553;50.766;2.900;2022-09-03T12:13:20;100308.41;;;27.61;54.25
60852;BME280;48553;50.766;2.900;2022-09-03T12:20:14;100312.94;;;27.59;53.67
60852;BME280;48553;50.766;2.900;2022-09-03T12:23:33;100315.09;;;27.45;54.15
60852;BME280;48553;50.766;2.900;2022-09-03T12:26:39;100299.25;;;27.39;53.88
60852;BME280;48553;50.766;2.900;2022-09-03T12:33:04;100315.66;;;27.72;53.35
60852;BME280;48553;50.766;2.900;2022-09-03T12:36:08;100298.69;;;27.94;51.78
60852;BME280;48553;50.766;2.900;2022-09-03T12:39:20;100315.41;;;27.88;52.05
60852;BME280;48553;50.766;2.900;2022-09-03T12:42:28;100309.44;;;27.86;51.16
60852;BME280;48553;50.766;2.900;2022-09-03T12:45:29;100306.13;;;27.78;51.08
60852;BME280;48553;50.766;2.900;2022-09-03T12:48:30;100304.53;;;27.68;50.78
60852;BME280;48553;50.766;2.900;2022-09-03T12:51:41;100303.56;;;27.53;51.00
60852;BME280;48553;50.766;2.900;2022-09-03T13:01:20;100305.41;;;27.87;50.45
60852;BME280;48553;50.766;2.900;2022-09-03T13:04:33;100305.41;;;27.87;50.49
60852;BME280;48553;50.766;2.900;2022-09-03T13:07:35;100312.06;;;27.80;50.75
60852;BME280;48553;50.766;2.900;2022-09-03T13:10:39;100325.00;;;27.59;51.55
60852;BME280;48553;50.766;2.900;2022-09-03T13:14:07;100318.06;;;27.42;51.42
60852;BME280;48553;50.766;2.900;2022-09-03T13:23:51;100336.34;;;27.15;52.07
60852;BME280;48553;50.766;2.900;2022-09-03T13:30:21;100353.41;;;26.67;54.60
60852;BME280;48553;50.766;2.900;2022-09-03T13:33:31;100348.19;;;26.44;55.56
60852;BME280;48553;50.766;2.900;2022-09-03T13:36:57;100338.34;;;26.27;56.67
60852;BME280;48553;50.766;2.900;2022-09-03T13:40:05;100334.69;;;26.17;56.92
60852;BME280;48553;50.766;2.900;2022-09-03T13:44:23;100338.28;;;26.17;56.83
60852;BME280;48553;50.766;2.900;2022-09-03T13:50:18;100326.66;;;26.63;58.33
60852;BME280;48553;50.766;2.900;2022-09-03T13:53:58;100328.94;;;26.77;59.01
60852;BME280;48553;50.766;2.900;2022-09-03T13:57:00;100328.53;;;26.88;60.99
60852;BME280;48553;50.766;2.900;2022-09-03T14:00:04;100324.88;;;27.00;59.64
60852;BME280;48553;50.766;2.900;2022-09-03T14:10:08;100329.00;;;27.18;59.45
60852;BME280;48553;50.766;2.900;2022-09-03T14:19:47;100324.16;;;27.18;58.88
60852;BME280;48553;50.766;2.900;2022-09-03T14:23:02;100314.00;;;27.12;58.78
60852;BME280;48553;50.766;2.900;2022-09-03T14:26:05;100324.94;;;27.10;58.69
60852;BME280;48553;50.766;2.900;2022-09-03T14:29:16;100320.75;;;26.92;58.61
60852;BME280;48553;50.766;2.900;2022-09-03T14:32:27;100315.53;;;26.81;58.24
60852;BME280;48553;50.766;2.900;2022-09-03T14:35:37;100322.69;;;26.73;57.98
60852;BME280;48553;50.766;2.900;2022-09-03T14:58:32;100327.47;;;26.16;58.18
60852;BME280;48553;50.766;2.900;2022-09-03T15:01:35;100331.97;;;26.13;58.35
60852;BME280;48553;50.766;2.900;2022-09-03T15:11:28;100325.75;;;25.96;58.55
60852;BME280;48553;50.766;2.900;2022-09-03T15:21:38;100339.78;;;25.83;58.34
60852;BME280;48553;50.766;2.900;2022-09-03T15:38:04;100325.28;;;25.85;58.03
60852;BME280;48553;50.766;2.900;2022-09-03T15:41:28;100327.63;;;25.87;57.82
60852;BME280;48553;50.766;2.900;2022-09-03T15:44:44;100325.88;;;25.80;58.11
60852;BME280;48553;50.766;2.900;2022-09-03T15:47:52;100321.03;;;25.80;57.89
60852;BME280;48553;50.766;2.900;2022-09-03T15:51:09;100331.59;;;25.76;57.88
60852;BME280;48553;50.766;2.900;2022-09-03T15:54:20;100326.66;;;25.68;58.29
60852;BME280;48553;50.766;2.900;2022-09-03T15:57:36;100325.63;;;25.61;58.09
60852;BME280;48553;50.766;2.900;2022-09-03T16:07:25;100344.97;;;25.47;57.85
60852;BME280;48553;50.766;2.900;2022-09-03T16:10:46;100347.53;;;25.41;58.03
60852;BME280;48553;50.766;2.900;2022-09-03T16:17:25;100345.41;;;25.32;57.92
60852;BME280;48553;50.766;2.900;2022-09-03T16:23:47;100355.63;;;25.26;57.96
60852;BME280;48553;50.766;2.900;2022-09-03T16:26:54;100354.94;;;25.22;57.77
60852;BME280;48553;50.766;2.900;2022-09-03T16:33:45;100354.34;;;25.14;57.69
60852;BME280;48553;50.766;2.900;2022-09-03T16:40:44;100366.22;;;25.06;57.26
60852;BME280;48553;50.766;2.900;2022-09-03T16:44:02;100369.88;;;25.02;57.42
60852;BME280;48553;50.766;2.900;2022-09-03T16:47:28;100372.03;;;24.98;57.17
60852;BME280;48553;50.766;2.900;2022-09-03T17:00:27;100376.13;;;24.81;58.31
60852;BME280;48553;50.766;2.900;2022-09-03T17:10:22;100394.13;;;24.67;58.94
60852;BME280;48553;50.766;2.900;2022-09-03T17:36:37;100404.06;;;24.39;58.96
60852;BME280;48553;50.766;2.900;2022-09-03T17:52:44;100442.81;;;24.24;58.85
60852;BME280;48553;50.766;2.900;2022-09-03T17:56:10;100450.09;;;24.22;59.23
60852;BME280;48553;50.766;2.900;2022-09-03T18:02:42;100449.03;;;24.15;59.31
60852;BME280;48553;50.766;2.900;2022-09-03T18:05:47;100460.34;;;24.12;58.97
60852;BME280;48553;50.766;2.900;2022-09-03T18:12:28;100465.22;;;24.08;59.20
60852;BME280;48553;50.766;2.900;2022-09-03T18:15:45;100469.22;;;24.07;58.94
60852;BME280;48553;50.766;2.900;2022-09-03T18:18:52;100473.69;;;24.04;58.90
60852;BME280;48553;50.766;2.900;2022-09-03T18:21:59;100474.59;;;24.01;58.80
60852;BME280;48553;50.766;2.900;2022-09-03T18:25:21;100491.03;;;23.99;58.75
60852;BME280;48553;50.766;2.900;2022-09-03T18:28:53;100488.75;;;23.94;59.25
60852;BME280;48553;50.766;2.900;2022-09-03T18:32:16;100496.78;;;23.92;59.04
60852;BME280;48553;50.766;2.900;2022-09-03T18:35:35;100513.22;;;23.90;59.40
60852;BME280;48553;50.766;2.900;2022-09-03T18:39:02;100522.91;;;23.85;59.35
60852;BME280;48553;50.766;2.900;2022-09-03T18:46:04;100510.66;;;23.79;59.79
60852;BME280;48553;50.766;2.900;2022-09-03T18:49:57;100501.91;;;23.77;59.86
60852;BME280;48553;50.766;2.900;2022-09-03T18:53:27;100517.94;;;23.73;60.03
60852;BME280;48553;50.766;2.900;2022-09-03T18:56:51;100527.16;;;23.73;59.95
60852;BME280;48553;50.766;2.900;2022-09-03T19:00:14;100516.81;;;23.70;60.25
60852;BME280;48553;50.766;2.900;2022-09-03T19:07:22;100530.06;;;23.66;60.58
60852;BME280;48553;50.766;2.900;2022-09-03T19:14:48;100519.03;;;23.59;60.73
60852;BME280;48553;50.766;2.900;2022-09-03T19:21:44;100530.72;;;23.54;60.96
60852;BME280;48553;50.766;2.900;2022-09-03T19:25:10;100525.56;;;23.52;60.98
60852;BME280;48553;50.766;2.900;2022-09-03T19:28:30;100528.44;;;23.49;61.55
60852;BME280;48553;50.766;2.900;2022-09-03T19:31:56;100538.56;;;23.43;61.91
60852;BME280;48553;50.766;2.900;2022-09-03T19:35:22;100534.59;;;23.40;62.05
60852;BME280;48553;50.766;2.900;2022-09-03T19:46:21;100559.91;;;23.33;62.11
60852;BME280;48553;50.766;2.900;2022-09-03T19:53:29;100554.84;;;23.28;62.52
60852;BME280;48553;50.766;2.900;2022-09-03T19:56:50;100554.88;;;23.24;62.68
60852;BME280;48553;50.766;2.900;2022-09-03T20:00:12;100556.53;;;23.22;62.55
60852;BME280;48553;50.766;2.900;2022-09-03T20:03:31;100559.34;;;23.22;62.41
60852;BME280;48553;50.766;2.900;2022-09-03T20:06:52;100557.72;;;23.21;62.66
60852;BME280;48553;50.766;2.900;2022-09-03T20:10:13;100562.19;;;23.18;62.57
60852;BME280;48553;50.766;2.900;2022-09-03T20:13:21;100557.88;;;23.13;62.87
60852;BME280;48553;50.766;2.900;2022-09-03T20:16:30;100563.91;;;23.12;62.97
60852;BME280;48553;50.766;2.900;2022-09-03T20:23:11;100569.56;;;23.08;62.54
60852;BME280;48553;50.766;2.900;2022-09-03T20:30:05;100569.69;;;23.01;63.15
60852;BME280;48553;50.766;2.900;2022-09-03T20:36:35;100580.09;;;22.97;62.67
60852;BME280;48553;50.766;2.900;2022-09-03T20:53:40;100593.81;;;22.88;62.73
60852;BME280;48553;50.766;2.900;2022-09-03T20:57:17;100597.47;;;22.85;62.82
60852;BME280;48553;50.766;2.900;2022-09-03T21:00:20;100595.53;;;22.82;63.13
60852;BME280;48553;50.766;2.900;2022-09-03T21:07:10;100593.94;;;22.81;62.64
60852;BME280;48553;50.766;2.900;2022-09-03T21:13:41;100592.91;;;22.71;63.19
60852;BME280;48553;50.766;2.900;2022-09-03T21:20:16;100594.13;;;22.70;62.88
60852;BME280;48553;50.766;2.900;2022-09-03T21:24:04;100602.91;;;22.68;62.81
60852;BME280;48553;50.766;2.900;2022-09-03T21:27:08;100606.50;;;22.69;62.44
60852;BME280;48553;50.766;2.900;2022-09-03T21:30:16;100601.38;;;22.64;63.04
60852;BME280;48553;50.766;2.900;2022-09-03T21:33:22;100608.56;;;22.65;62.76
60852;BME280;48553;50.766;2.900;2022-09-03T21:36:32;100612.19;;;22.62;63.11
60852;BME280;48553;50.766;2.900;2022-09-03T21:39:47;100607.81;;;22.61;62.84
60852;BME280;48553;50.766;2.900;2022-09-03T21:43:07;100603.09;;;22.58;63.26
60852;BME280;48553;50.766;2.900;2022-09-03T21:49:15;100604.25;;;22.60;62.83
60852;BME280;48553;50.766;2.900;2022-09-03T21:59:03;100618.75;;;22.51;62.76